createdAt,value
2022-10-14T00:01:07.070Z,33.03
2022-10-14T00:03:36.315Z,31.47
2022-10-14T00:06:06.394Z,32.90
2022-10-14T00:08:34.441Z,31.77
2022-10-14T00:11:07.602Z,29.77
2022-10-14T00:13:36.083Z,30.33
2022-10-14T00:16:05.384Z,32.33
2022-10-14T00:18:33.714Z,30.60
2022-10-14T00:21:03.632Z,28.67
2022-10-14T00:23:31.554Z,29.77
2022-10-14T00:25:59.534Z,29.07
2022-10-14T00:28:28.907Z,30.43
2022-10-14T00:30:57.758Z,33.53
2022-10-14T00:33:26.057Z,30.00
2022-10-14T00:35:58.927Z,32.77
2022-10-14T00:38:27.300Z,33.13
2022-10-14T00:40:58.592Z,29.97
2022-10-14T00:43:29.849Z,30.47
2022-10-14T00:45:57.712Z,34.90
2022-10-14T00:48:27.584Z,30.53
2022-10-14T00:50:58.059Z,31.23
2022-10-14T00:53:26.195Z,29.03
2022-10-14T00:55:54.061Z,31.43
2022-10-14T00:58:22.243Z,31.73
2022-10-14T01:00:51.863Z,34.90
2022-10-14T01:03:22.325Z,33.33
2022-10-14T01:05:57.753Z,33.17
2022-10-14T01:08:32.087Z,36.67
2022-10-14T01:11:08.850Z,27.60
2022-10-14T01:13:39.992Z,30.73
2022-10-14T01:16:19.458Z,33.20
2022-10-14T01:18:59.865Z,32.33
2022-10-14T01:21:33.616Z,31.33
2022-10-14T01:24:33.604Z,32.17
2022-10-14T01:27:20.982Z,34.03
2022-10-14T01:30:02.552Z,32.03
2022-10-14T01:32:33.192Z,31.30
2022-10-14T01:35:09.803Z,31.47
2022-10-14T01:37:44.175Z,34.40
2022-10-14T01:40:18.787Z,33.40
2022-10-14T01:42:48.747Z,30.43
2022-10-14T01:45:22.149Z,36.63
2022-10-14T01:47:52.492Z,32.60
2022-10-14T01:50:25.118Z,29.93
2022-10-14T01:52:57.282Z,30.57
2022-10-14T01:55:29.321Z,29.77
2022-10-14T01:57:58.747Z,31.27
2022-10-14T02:00:28.031Z,31.43
2022-10-14T02:02:55.950Z,30.33
2022-10-14T02:05:29.938Z,32.20
2022-10-14T02:08:05.507Z,30.07
2022-10-14T02:10:52.652Z,29.50
2022-10-14T02:13:35.902Z,33.00
2022-10-14T02:16:15.704Z,28.97
2022-10-14T02:18:52.547Z,27.90
2022-10-14T02:21:25.665Z,27.03
2022-10-14T02:23:58.914Z,29.40
2022-10-14T02:26:28.137Z,28.77
2022-10-14T02:29:00.960Z,25.43
2022-10-14T02:31:32.470Z,31.47
2022-10-14T02:34:04.193Z,29.23
2022-10-14T02:36:33.918Z,26.83
2022-10-14T02:39:03.042Z,27.93
2022-10-14T02:41:36.164Z,29.53
2022-10-14T02:44:06.140Z,31.33
2022-10-14T02:46:36.408Z,30.73
2022-10-14T02:49:04.357Z,29.47
2022-10-14T02:51:32.177Z,28.50
2022-10-14T02:54:01.706Z,29.97
2022-10-14T02:56:30.393Z,36.23
2022-10-14T02:58:58.244Z,33.73
2022-10-14T03:01:26.333Z,30.80
2022-10-14T03:03:58.352Z,33.73
2022-10-14T03:06:26.425Z,31.97
2022-10-14T03:08:54.244Z,31.27
2022-10-14T03:11:22.186Z,36.30
2022-10-14T03:13:50.145Z,32.37
2022-10-14T03:16:18.009Z,34.17
2022-10-14T03:18:45.912Z,31.77
2022-10-14T03:21:15.281Z,29.47
2022-10-14T03:23:43.124Z,31.73
2022-10-14T03:26:14.042Z,32.80
2022-10-14T03:28:42.381Z,32.60
2022-10-14T03:31:10.310Z,32.20
2022-10-14T03:33:38.283Z,32.60
2022-10-14T03:36:06.614Z,32.30
2022-10-14T03:38:35.878Z,34.67
2022-10-14T03:41:03.822Z,34.90
2022-10-14T03:43:31.966Z,32.90
2022-10-14T03:45:59.832Z,34.40
2022-10-14T03:48:27.762Z,30.67
2022-10-14T03:50:55.759Z,36.77
2022-10-14T03:53:23.634Z,32.97
2022-10-14T03:55:53.050Z,33.63
2022-10-14T03:58:21.004Z,38.63
2022-10-14T04:00:48.926Z,32.37
2022-10-14T04:03:16.780Z,34.90
2022-10-14T04:05:44.926Z,37.10
2022-10-14T04:08:12.987Z,34.73
2022-10-14T04:10:40.959Z,35.67
2022-10-14T04:13:10.374Z,35.33
2022-10-14T04:15:38.795Z,33.37
2022-10-14T04:18:06.763Z,31.47
2022-10-14T04:20:34.634Z,35.63
2022-10-14T04:23:02.600Z,35.50
2022-10-14T04:25:30.668Z,35.67
2022-10-14T04:27:58.657Z,34.03
2022-10-14T04:30:27.847Z,37.67
2022-10-14T04:32:55.853Z,40.60
2022-10-14T04:35:24.002Z,39.23
2022-10-14T04:37:51.872Z,36.97
2022-10-14T04:40:20.553Z,38.23
2022-10-14T04:42:48.602Z,39.40
2022-10-14T04:45:16.562Z,38.00
2022-10-14T04:47:48.622Z,39.23
2022-10-14T04:50:16.963Z,41.27
2022-10-14T04:52:44.827Z,37.60
2022-10-14T04:55:13.315Z,41.00
2022-10-14T04:57:43.965Z,44.07
2022-10-14T05:00:13.992Z,40.43
2022-10-14T05:02:41.964Z,40.50
2022-10-14T05:05:11.895Z,37.87
2022-10-14T05:07:40.345Z,37.60
2022-10-14T05:10:10.362Z,41.20
2022-10-14T05:12:39.635Z,40.77
2022-10-14T05:15:18.944Z,43.33
2022-10-14T05:17:50.146Z,42.80
2022-10-14T05:20:21.036Z,40.83
2022-10-14T05:22:49.035Z,42.73
2022-10-14T05:25:17.269Z,43.60
2022-10-14T05:27:45.375Z,40.17
2022-10-14T05:30:14.481Z,39.53
2022-10-14T05:32:42.572Z,43.43
2022-10-14T05:35:10.879Z,45.07
2022-10-14T05:37:41.478Z,47.10
2022-10-14T05:40:11.341Z,47.80
2022-10-14T05:42:39.546Z,43.67
2022-10-14T05:45:08.072Z,43.10
2022-10-14T05:47:36.100Z,42.67
2022-10-14T05:50:04.563Z,48.13
2022-10-14T05:52:35.851Z,53.13
2022-10-14T05:55:05.882Z,47.17
2022-10-14T05:57:34.154Z,50.77
2022-10-14T06:00:02.093Z,50.87
2022-10-14T06:02:30.182Z,45.37
2022-10-14T06:04:58.727Z,46.10
2022-10-14T06:07:26.723Z,46.43
2022-10-14T06:09:54.644Z,45.90
2022-10-14T06:12:24.245Z,49.87
2022-10-14T06:14:52.255Z,45.50
2022-10-14T06:17:20.239Z,49.73
2022-10-14T06:19:48.128Z,46.23
2022-10-14T06:22:16.051Z,41.00
2022-10-14T06:24:44.057Z,44.67
2022-10-14T06:27:11.875Z,46.10
2022-10-14T06:29:44.092Z,49.40
2022-10-14T06:32:14.739Z,46.83
2022-10-14T06:34:42.667Z,46.90
2022-10-14T06:37:10.621Z,47.17
2022-10-14T06:39:38.531Z,45.47
2022-10-14T06:42:10.724Z,47.77
2022-10-14T06:44:45.500Z,48.97
2022-10-14T06:47:13.642Z,49.87
2022-10-14T06:49:41.580Z,46.30
2022-10-14T06:52:10.065Z,50.07
2022-10-14T06:54:39.635Z,45.80
2022-10-14T06:57:08.344Z,47.80
2022-10-14T06:59:39.186Z,45.30
2022-10-14T07:02:09.871Z,47.70
2022-10-14T07:04:38.375Z,48.47
2022-10-14T07:07:07.452Z,45.03
2022-10-14T07:09:35.474Z,47.53
2022-10-14T07:12:03.476Z,42.77
2022-10-14T07:14:31.504Z,43.27
2022-10-14T07:17:00.562Z,42.53
2022-10-14T07:19:29.879Z,42.47
2022-10-14T07:21:57.884Z,39.60
2022-10-14T07:24:25.876Z,45.47
2022-10-14T07:26:54.070Z,40.57
2022-10-14T07:29:23.706Z,43.37
2022-10-14T07:31:54.603Z,51.87
2022-10-14T07:34:22.584Z,41.70
2022-10-14T07:36:55.084Z,61.77
2022-10-14T07:39:23.123Z,46.30
2022-10-14T07:41:50.987Z,46.47
2022-10-14T07:44:21.334Z,39.17
2022-10-14T07:46:53.229Z,43.47
2022-10-14T07:49:22.323Z,45.67
2022-10-14T07:51:50.361Z,44.13
2022-10-14T07:54:22.501Z,48.03
2022-10-14T07:56:50.608Z,45.20
2022-10-14T07:59:20.087Z,48.67
2022-10-14T08:01:51.311Z,45.93
2022-10-14T08:04:20.338Z,42.90
2022-10-14T08:06:57.215Z,42.07
2022-10-14T08:11:54.501Z,45.07
2022-10-14T08:14:22.475Z,65.93
2022-10-14T08:16:53.201Z,48.87
2022-10-14T08:19:21.905Z,40.33
2022-10-14T08:21:50.023Z,40.37
2022-10-14T08:24:17.921Z,37.77
2022-10-14T08:26:53.764Z,41.87
2022-10-14T08:29:23.258Z,36.93
2022-10-14T08:31:52.370Z,33.33
2022-10-14T08:34:21.269Z,38.13
2022-10-14T08:36:49.472Z,32.83
2022-10-14T08:39:19.275Z,34.23
2022-10-14T08:42:09.008Z,33.33
2022-10-14T08:44:43.134Z,29.33
2022-10-14T08:47:15.688Z,30.67
2022-10-14T08:49:54.061Z,30.55
2022-10-14T08:52:26.704Z,28.97
2022-10-14T08:54:59.884Z,27.97
2022-10-14T08:57:36.008Z,28.73
2022-10-14T09:00:05.026Z,28.67
2022-10-14T09:02:43.114Z,27.80
2022-10-14T09:05:16.233Z,27.70
2022-10-14T09:07:46.274Z,26.83
2022-10-14T09:10:30.288Z,26.60
2022-10-14T09:13:04.620Z,27.03
2022-10-14T09:15:38.341Z,25.87
2022-10-14T09:18:13.460Z,26.00
2022-10-14T09:20:42.495Z,26.63
2022-10-14T09:23:17.231Z,27.30
2022-10-14T09:25:55.263Z,26.27
2022-10-14T09:28:33.221Z,27.80
2022-10-14T09:31:01.498Z,25.00
2022-10-14T09:33:30.488Z,25.53
2022-10-14T09:38:34.585Z,27.13
2022-10-14T09:41:03.047Z,26.90
2022-10-14T09:43:32.406Z,26.90
2022-10-14T09:46:03.164Z,25.27
2022-10-14T09:48:34.365Z,24.87
2022-10-14T09:51:04.386Z,24.60
2022-10-14T09:53:37.991Z,24.40
2022-10-14T09:56:08.189Z,24.03
2022-10-14T09:58:44.517Z,23.97
2022-10-14T10:01:17.243Z,26.63
2022-10-14T10:03:46.045Z,24.60
2022-10-14T10:06:16.972Z,22.10
2022-10-14T10:08:58.275Z,23.27
2022-10-14T10:11:30.349Z,24.20
2022-10-14T10:14:16.691Z,26.50
2022-10-14T10:16:44.747Z,27.17
2022-10-14T10:19:28.154Z,26.48
2022-10-14T10:21:56.239Z,27.23
2022-10-14T10:24:27.478Z,27.83
2022-10-14T10:26:58.320Z,24.70
2022-10-14T10:29:35.572Z,27.30
2022-10-14T10:32:15.415Z,26.30
2022-10-14T10:35:09.503Z,26.77
2022-10-14T10:37:46.620Z,26.80
2022-10-14T10:40:33.049Z,24.77
2022-10-14T10:43:22.921Z,24.20
2022-10-14T10:46:04.465Z,26.73
2022-10-14T10:48:41.271Z,26.97
2022-10-14T10:51:13.991Z,26.87
2022-10-14T10:54:14.043Z,24.73
2022-10-14T10:56:47.210Z,22.53
2022-10-14T10:59:35.511Z,25.83
2022-10-14T11:02:35.273Z,24.63
2022-10-14T11:05:10.773Z,26.27
2022-10-14T11:08:03.671Z,26.40
2022-10-14T11:10:54.443Z,25.43
2022-10-14T11:13:32.276Z,24.80
2022-10-14T11:16:07.674Z,23.50
2022-10-14T11:18:46.451Z,23.47
2022-10-14T11:21:22.027Z,22.23
2022-10-14T11:23:59.950Z,23.93
2022-10-14T11:26:48.053Z,22.23
2022-10-14T11:29:31.508Z,23.13
2022-10-14T11:32:09.439Z,21.57
2022-10-14T11:34:48.901Z,22.50
2022-10-14T11:37:29.961Z,22.87
2022-10-14T11:40:00.274Z,21.97
2022-10-14T11:42:38.804Z,22.13
2022-10-14T11:45:24.417Z,23.80
2022-10-14T11:47:56.127Z,22.40
2022-10-14T11:50:30.230Z,23.07
2022-10-14T11:53:03.116Z,23.07
2022-10-14T11:55:36.001Z,22.43
2022-10-14T11:58:08.005Z,22.27
2022-10-14T12:00:55.626Z,21.43
2022-10-14T12:03:35.949Z,20.93
2022-10-14T12:06:12.325Z,22.20
2022-10-14T12:08:51.973Z,22.80
2022-10-14T12:11:29.059Z,20.40
2022-10-14T12:14:06.071Z,21.47
2022-10-14T12:16:34.478Z,22.30
2022-10-14T12:19:02.662Z,22.87
2022-10-14T12:21:38.786Z,22.30
2022-10-14T12:24:14.386Z,23.50
2022-10-14T12:26:52.368Z,20.83
2022-10-14T12:29:23.824Z,20.50
2022-10-14T12:32:07.727Z,19.50
2022-10-14T12:34:37.900Z,18.97
2022-10-14T12:37:52.236Z,17.70
2022-10-14T12:40:31.886Z,17.57
2022-10-14T12:43:24.636Z,17.17
2022-10-14T12:46:20.246Z,17.30
2022-10-14T12:48:52.897Z,19.77
2022-10-14T12:51:23.653Z,16.07
2022-10-14T12:54:05.126Z,15.50
2022-10-14T12:56:38.888Z,13.90
2022-10-14T12:59:10.020Z,13.13
2022-10-14T13:01:38.589Z,12.90
2022-10-14T13:04:08.977Z,12.80
2022-10-14T13:06:40.117Z,12.57
2022-10-14T13:09:32.653Z,11.90
2022-10-14T13:12:42.358Z,11.90
2022-10-14T13:15:49.706Z,11.40
2022-10-14T13:18:52.825Z,12.00
2022-10-14T13:21:52.655Z,11.97
2022-10-14T13:24:28.150Z,12.10
2022-10-14T13:27:14.891Z,12.23
2022-10-14T13:30:01.753Z,13.13
2022-10-14T13:32:39.633Z,12.60
2022-10-14T13:35:18.900Z,12.33
2022-10-14T13:37:54.469Z,12.90
2022-10-14T13:40:27.308Z,12.43
2022-10-14T13:42:58.856Z,13.60
2022-10-14T13:45:35.935Z,12.20
2022-10-14T13:48:13.882Z,11.93
2022-10-14T13:50:43.397Z,12.53
2022-10-14T13:53:17.832Z,13.17
2022-10-14T13:55:51.536Z,12.23
2022-10-14T13:58:24.709Z,11.27
2022-10-14T14:01:03.948Z,11.97
2022-10-14T14:03:36.848Z,11.83
2022-10-14T14:06:11.509Z,12.23
2022-10-14T14:08:50.308Z,12.13
2022-10-14T14:11:20.848Z,12.17
2022-10-14T14:14:00.310Z,11.63
2022-10-14T14:16:33.269Z,12.97
2022-10-14T14:19:08.692Z,11.93
2022-10-14T14:21:37.320Z,12.33
2022-10-14T14:24:17.715Z,12.10
2022-10-14T14:26:45.916Z,11.17
2022-10-14T14:29:18.427Z,13.00
2022-10-14T14:32:05.395Z,12.67
2022-10-14T14:34:37.181Z,13.97
2022-10-14T14:37:25.135Z,13.13
2022-10-14T14:40:01.665Z,13.77
2022-10-14T14:42:33.569Z,13.67
2022-10-14T14:45:05.925Z,13.57
2022-10-14T14:47:34.875Z,13.73
2022-10-14T14:52:53.620Z,14.17
2022-10-14T14:55:42.051Z,13.03
2022-10-14T14:58:24.510Z,14.30
2022-10-14T15:00:54.716Z,12.87
2022-10-14T15:03:24.264Z,12.70
2022-10-14T15:05:57.338Z,14.17
2022-10-14T15:08:27.567Z,13.40
2022-10-14T15:10:58.070Z,13.23
2022-10-14T15:13:29.969Z,16.93
2022-10-14T15:15:57.957Z,13.83
2022-10-14T15:18:28.045Z,14.07
2022-10-14T15:21:14.981Z,14.73
2022-10-14T15:23:47.037Z,13.77
2022-10-14T15:26:26.351Z,14.30
2022-10-14T15:29:14.393Z,14.30
2022-10-14T15:31:44.248Z,15.83
2022-10-14T15:34:20.404Z,15.90
2022-10-14T15:36:52.709Z,14.87
2022-10-14T15:39:21.280Z,14.53
2022-10-14T15:41:49.250Z,15.57
2022-10-14T15:44:17.821Z,15.60
2022-10-14T15:47:04.621Z,15.00
2022-10-14T15:49:34.642Z,14.00
2022-10-14T15:52:04.582Z,14.43
2022-10-14T15:54:32.582Z,15.30
2022-10-14T15:57:00.929Z,16.67
2022-10-14T15:59:29.020Z,15.63
2022-10-14T16:01:56.968Z,15.47
2022-10-14T16:04:28.043Z,13.37
2022-10-14T16:06:57.712Z,14.70
2022-10-14T16:09:28.781Z,14.00
2022-10-14T16:11:59.836Z,15.23
2022-10-14T16:14:28.535Z,14.67
2022-10-14T16:16:56.434Z,14.00
2022-10-14T16:19:24.373Z,13.17
2022-10-14T16:21:52.344Z,16.20
2022-10-14T16:24:22.220Z,15.33
2022-10-14T16:26:51.581Z,13.37
2022-10-14T16:29:20.983Z,15.17
2022-10-14T16:31:50.118Z,13.50
2022-10-14T16:34:18.564Z,12.93
2022-10-14T16:36:46.715Z,13.07
2022-10-14T16:39:14.678Z,14.43
2022-10-14T16:41:43.092Z,15.47
2022-10-14T16:44:24.831Z,12.87
2022-10-14T16:47:10.735Z,13.43
2022-10-14T16:49:39.213Z,13.53
2022-10-14T16:52:07.405Z,15.47
2022-10-14T16:54:35.477Z,13.20
2022-10-14T16:57:03.551Z,13.43
2022-10-14T16:59:33.861Z,13.00
2022-10-14T17:02:02.212Z,15.33
2022-10-14T17:04:30.190Z,14.93
2022-10-14T17:06:58.136Z,13.67
2022-10-14T17:09:26.196Z,13.43
2022-10-14T17:11:54.931Z,16.47
2022-10-14T17:14:24.313Z,12.33
2022-10-14T17:16:53.637Z,14.57
2022-10-14T17:19:24.150Z,13.23
2022-10-14T17:21:52.078Z,12.80
2022-10-14T17:24:19.988Z,12.50
2022-10-14T17:26:47.862Z,12.73
2022-10-14T17:29:16.063Z,13.37
2022-10-14T17:31:44.830Z,12.67
2022-10-14T17:34:14.143Z,14.77
2022-10-14T17:36:42.143Z,13.80
2022-10-14T17:39:21.304Z,12.77
2022-10-14T17:41:55.451Z,13.27
2022-10-14T17:44:23.704Z,11.57
2022-10-14T17:46:51.707Z,11.93
2022-10-14T17:49:21.297Z,12.47
2022-10-14T17:51:52.715Z,12.27
2022-10-14T17:54:20.865Z,12.07
2022-10-14T17:56:48.785Z,12.07
2022-10-14T17:59:16.752Z,11.97
2022-10-14T18:04:35.523Z,11.60
2022-10-14T18:07:06.468Z,15.13
2022-10-14T18:09:35.174Z,11.73
2022-10-14T18:12:08.765Z,10.40
2022-10-14T18:14:37.465Z,11.53
2022-10-14T18:17:05.945Z,10.00
2022-10-14T18:19:35.264Z,9.27
2022-10-14T18:22:03.426Z,8.93
2022-10-14T18:24:31.469Z,11.83
2022-10-14T18:26:59.360Z,9.13
2022-10-14T18:29:27.714Z,9.53
2022-10-14T18:31:56.245Z,9.70
2022-10-14T18:34:25.567Z,11.30
2022-10-14T18:36:55.129Z,10.20
2022-10-14T18:39:23.211Z,11.47
2022-10-14T18:41:51.092Z,8.67
2022-10-14T18:44:22.281Z,9.60
2022-10-14T18:46:50.582Z,8.60
2022-10-14T18:49:18.650Z,9.30
2022-10-14T18:51:47.098Z,8.37
2022-10-14T18:54:18.070Z,8.40
2022-10-14T18:56:48.107Z,7.97
2022-10-14T18:59:19.396Z,7.90
2022-10-14T19:01:48.624Z,10.17
2022-10-14T19:04:17.312Z,10.10
2022-10-14T19:06:47.244Z,8.40
2022-10-14T19:09:18.613Z,8.47
2022-10-14T19:11:47.901Z,10.33
2022-10-14T19:14:15.725Z,10.03
2022-10-14T19:16:44.486Z,11.93
2022-10-14T19:19:15.283Z,9.07
2022-10-14T19:21:43.911Z,8.77
2022-10-14T19:24:13.672Z,10.20
2022-10-14T19:26:45.392Z,8.33
2022-10-14T19:29:15.304Z,7.63
2022-10-14T19:31:44.536Z,7.87
2022-10-14T19:34:14.715Z,10.30
2022-10-14T19:36:43.781Z,9.13
2022-10-14T19:39:15.096Z,7.80
2022-10-14T19:41:46.432Z,8.20
2022-10-14T19:44:16.081Z,8.53
2022-10-14T19:46:44.741Z,11.33
2022-10-14T19:49:15.321Z,7.80
2022-10-14T19:51:44.418Z,9.70
2022-10-14T19:54:13.692Z,10.07
2022-10-14T19:56:42.284Z,8.67
2022-10-14T19:59:14.125Z,8.40
2022-10-14T20:01:42.232Z,9.07
2022-10-14T20:04:10.141Z,9.27
2022-10-14T20:06:42.847Z,9.13
2022-10-14T20:09:14.583Z,9.00
2022-10-14T20:11:42.971Z,8.53
2022-10-14T20:14:14.487Z,9.03
2022-10-14T20:16:43.492Z,8.07
2022-10-14T20:19:12.153Z,7.33
2022-10-14T20:21:40.836Z,7.90
2022-10-14T20:24:09.263Z,7.80
2022-10-14T20:26:37.765Z,8.57
2022-10-14T20:29:05.709Z,7.40
2022-10-14T20:31:35.087Z,7.37
2022-10-14T20:34:08.692Z,9.07
2022-10-14T20:36:39.364Z,7.53
2022-10-14T20:39:07.320Z,7.37
2022-10-14T20:41:35.533Z,7.70
2022-10-14T20:44:03.535Z,8.00
2022-10-14T20:46:31.607Z,6.90
2022-10-14T20:49:00.906Z,7.63
2022-10-14T20:51:29.164Z,8.00
2022-10-14T20:54:02.658Z,8.90
2022-10-14T20:56:33.511Z,9.07
2022-10-14T20:59:04.526Z,8.80
2022-10-14T21:01:34.056Z,8.77
2022-10-14T21:04:05.302Z,9.57
2022-10-14T21:06:33.217Z,8.87
2022-10-14T21:09:01.576Z,8.07
2022-10-14T21:11:29.577Z,7.30
2022-10-14T21:13:59.069Z,7.63
2022-10-14T21:16:28.461Z,7.70
2022-10-14T21:18:59.135Z,7.67
2022-10-14T21:21:30.384Z,7.50
2022-10-14T21:23:59.805Z,8.80
2022-10-14T21:26:28.586Z,8.33
2022-10-14T21:28:56.803Z,7.70
2022-10-14T21:31:25.046Z,7.30
2022-10-14T21:34:01.122Z,6.90
2022-10-14T21:36:34.444Z,7.23
2022-10-14T21:39:06.848Z,7.50
2022-10-14T21:41:35.839Z,8.50
2022-10-14T21:44:04.245Z,7.10
2022-10-14T21:46:32.280Z,6.83
2022-10-14T21:49:00.396Z,6.80
2022-10-14T21:51:31.003Z,7.50
2022-10-14T21:54:00.589Z,8.10
2022-10-14T21:56:29.070Z,8.33
2022-10-14T21:58:57.031Z,6.93
2022-10-14T22:01:27.498Z,6.97
2022-10-14T22:03:56.455Z,6.63
2022-10-14T22:06:25.141Z,6.87
2022-10-14T22:08:56.651Z,8.40
2022-10-14T22:11:27.840Z,6.03
2022-10-14T22:13:57.490Z,6.77
2022-10-14T22:16:26.759Z,8.07
2022-10-14T22:18:54.774Z,8.50
2022-10-14T22:21:25.551Z,6.93
2022-10-14T22:23:53.941Z,8.87
2022-10-14T22:26:24.761Z,8.33
2022-10-14T22:29:00.602Z,7.47
2022-10-14T22:31:30.290Z,6.63
2022-10-14T22:33:59.705Z,7.93
2022-10-14T22:36:29.350Z,7.07
2022-10-14T22:38:58.887Z,6.40
2022-10-14T22:41:30.951Z,8.83
2022-10-14T22:44:04.078Z,7.17
2022-10-14T22:46:33.471Z,7.20
2022-10-14T22:49:02.095Z,7.83
2022-10-14T22:51:31.879Z,9.00
2022-10-14T22:54:00.359Z,8.77
2022-10-14T22:56:30.593Z,7.43
2022-10-14T22:58:59.652Z,9.63
2022-10-14T23:01:29.378Z,9.40
2022-10-14T23:03:58.634Z,8.10
2022-10-14T23:06:27.142Z,9.00
2022-10-14T23:08:55.486Z,9.17
2022-10-14T23:11:25.780Z,9.67
2022-10-14T23:13:54.600Z,8.20
2022-10-14T23:16:24.344Z,9.63
2022-10-14T23:18:54.770Z,9.27
2022-10-14T23:21:24.448Z,9.97
2022-10-14T23:23:53.730Z,8.57
2022-10-14T23:26:23.271Z,10.20
2022-10-14T23:28:52.671Z,10.80
2022-10-14T23:31:22.601Z,10.20
2022-10-14T23:33:52.266Z,8.77
2022-10-14T23:36:23.258Z,9.27
2022-10-14T23:38:52.542Z,10.63
2022-10-14T23:41:22.911Z,8.53
2022-10-14T23:43:52.134Z,10.53
2022-10-14T23:46:21.178Z,10.43
2022-10-14T23:49:00.708Z,12.40
2022-10-14T23:51:37.411Z,11.57
2022-10-14T23:54:05.956Z,10.77
2022-10-14T23:56:33.983Z,10.27
2022-10-14T23:59:02.215Z,10.63
